createdAt,value
2017-06-16T00:00:54.670Z,17.69
2017-06-16T00:01:54.975Z,17.66
2017-06-16T00:02:54.957Z,17.66
2017-06-16T00:03:54.948Z,17.59
2017-06-16T00:04:54.611Z,17.53
2017-06-16T00:05:54.599Z,17.5
2017-06-16T00:06:54.589Z,17.54
2017-06-16T00:07:54.578Z,17.44
2017-06-16T00:08:54.883Z,17.53
2017-06-16T00:09:54.557Z,17.51
2017-06-16T00:10:54.862Z,17.54
2017-06-16T00:11:54.539Z,17.38
2017-06-16T00:12:54.214Z,17.4
2017-06-16T00:13:54.513Z,17.41
2017-06-16T00:14:54.837Z,17.36
2017-06-16T00:15:54.501Z,17.36
2017-06-16T00:16:54.799Z,17.32
2017-06-16T00:17:54.476Z,17.25
2017-06-16T00:18:54.780Z,17.33
2017-06-16T00:19:54.455Z,17.33
2017-06-16T00:20:54.753Z,17.35
2017-06-16T00:21:54.436Z,17.38
2017-06-16T00:22:54.434Z,17.36
2017-06-16T00:23:54.411Z,17.32
2017-06-16T00:24:54.405Z,17.4
2017-06-16T00:25:54.401Z,17.36
2017-06-16T00:26:54.695Z,17.26
2017-06-16T00:27:54.062Z,17.28
2017-06-16T00:28:54.360Z,17.32
2017-06-16T00:29:54.352Z,17.29
2017-06-16T00:30:54.657Z,17.26
2017-06-16T00:31:54.331Z,17.23
2017-06-16T00:32:54.632Z,17.23
2017-06-16T00:33:54.630Z,17.17
2017-06-16T00:34:54.299Z,17.15
2017-06-16T00:35:54.289Z,17.11
2017-06-16T00:36:54.595Z,17.1
2017-06-16T00:37:54.583Z,17.14
2017-06-16T00:38:54.573Z,17.11
2017-06-16T00:39:54.561Z,17.07
2017-06-16T00:40:54.553Z,17.07
2017-06-16T00:41:54.227Z,17.1
2017-06-16T00:42:54.216Z,17.06
2017-06-16T00:43:53.895Z,17.07
2017-06-16T00:44:54.195Z,17.11
2017-06-16T00:45:54.184Z,16.99
2017-06-16T00:46:54.172Z,17.08
2017-06-16T00:47:54.165Z,17.1
2017-06-16T00:48:54.467Z,17.08
2017-06-16T00:49:54.141Z,17.13
2017-06-16T00:50:54.133Z,17.08
2017-06-16T00:51:54.121Z,17.11
2017-06-16T00:52:53.805Z,17.1
2017-06-16T00:53:54.097Z,17.1
2017-06-16T00:54:54.405Z,17.11
2017-06-16T00:55:54.394Z,17.14
2017-06-16T00:56:54.074Z,17.13
2017-06-16T00:57:54.058Z,17.1
2017-06-16T00:58:54.365Z,17.2
2017-06-16T00:59:54.352Z,17.22
2017-06-16T01:00:54.028Z,17.22
2017-06-16T01:01:54.019Z,17.22
2017-06-16T01:02:54.007Z,17.17
2017-06-16T01:03:54.027Z,17.26
2017-06-16T01:04:54.299Z,17.22
2017-06-16T01:05:53.666Z,17.23
2017-06-16T01:06:53.655Z,17.29
2017-06-16T01:07:54.271Z,17.29
2017-06-16T01:08:54.261Z,17.36
2017-06-16T01:09:54.254Z,17.4
2017-06-16T01:10:53.689Z,17.38
2017-06-16T01:11:53.598Z,17.33
2017-06-16T01:12:53.905Z,17.32
2017-06-16T01:13:53.897Z,17.36
2017-06-16T01:14:54.201Z,17.36
2017-06-16T01:15:53.560Z,17.35
2017-06-16T01:16:54.173Z,17.3
2017-06-16T01:17:53.854Z,17.33
2017-06-16T01:18:53.843Z,17.35
2017-06-16T01:19:53.513Z,17.29
2017-06-16T01:20:53.871Z,17.28
2017-06-16T01:21:54.125Z,17.32
2017-06-16T01:22:53.796Z,17.3
2017-06-16T01:23:53.787Z,17.32
2017-06-16T01:24:53.666Z,17.29
2017-06-16T01:25:54.082Z,17.3
2017-06-16T01:26:54.071Z,17.3
2017-06-16T01:27:53.747Z,17.35
2017-06-16T01:28:54.046Z,17.35
2017-06-16T01:29:54.037Z,17.33
2017-06-16T01:30:53.714Z,17.32
2017-06-16T01:31:54.019Z,17.35
2017-06-16T01:32:53.694Z,17.32
2017-06-16T01:33:53.682Z,17.32
2017-06-16T01:34:53.677Z,17.36
2017-06-16T01:35:53.663Z,17.41
2017-06-16T01:36:53.964Z,17.29
2017-06-16T01:37:53.953Z,17.38
2017-06-16T01:38:53.627Z,17.35
2017-06-16T01:39:53.307Z,17.36
2017-06-16T01:40:53.607Z,17.35
2017-06-16T01:41:53.605Z,17.32
2017-06-16T01:42:53.275Z,17.38
2017-06-16T01:43:53.579Z,17.38
2017-06-16T01:44:53.568Z,17.41
2017-06-16T01:45:53.871Z,17.38
2017-06-16T01:46:53.862Z,17.4
2017-06-16T01:47:53.852Z,17.47
2017-06-16T01:48:53.535Z,17.35
2017-06-16T01:49:53.516Z,17.44
2017-06-16T01:50:53.505Z,17.38
2017-06-16T01:51:53.814Z,17.46
2017-06-16T01:52:53.518Z,17.41
2017-06-16T01:53:53.471Z,17.38
2017-06-16T01:54:53.774Z,17.4
2017-06-16T01:55:53.137Z,17.36
2017-06-16T01:56:53.762Z,17.38
2017-06-16T01:57:53.749Z,17.36
2017-06-16T01:58:53.438Z,17.38
2017-06-16T01:59:53.096Z,17.38
2017-06-16T02:00:53.086Z,17.41
2017-06-16T02:01:53.388Z,17.36
2017-06-16T02:02:53.379Z,17.41
2017-06-16T02:03:53.679Z,17.38
2017-06-16T02:04:53.669Z,17.33
2017-06-16T02:05:53.035Z,17.38
2017-06-16T02:06:53.342Z,17.4
2017-06-16T02:07:53.326Z,17.38
2017-06-16T02:08:53.314Z,17.38
2017-06-16T02:09:53.618Z,17.4
2017-06-16T02:10:53.605Z,17.38
2017-06-16T02:11:53.281Z,17.4
2017-06-16T02:12:52.961Z,17.36
2017-06-16T02:13:53.572Z,17.38
2017-06-16T02:14:53.250Z,17.36
2017-06-16T02:15:53.239Z,17.43
2017-06-16T02:16:53.541Z,17.4
2017-06-16T02:17:53.219Z,17.36
2017-06-16T02:18:53.211Z,17.4
2017-06-16T02:19:53.515Z,17.33
2017-06-16T02:20:53.193Z,17.41
2017-06-16T02:21:53.491Z,17.43
2017-06-16T02:22:53.481Z,17.41
2017-06-16T02:23:53.158Z,17.41
2017-06-16T02:24:53.459Z,17.36
2017-06-16T02:25:53.135Z,17.36
2017-06-16T02:26:53.441Z,17.41
2017-06-16T02:27:53.427Z,17.38
2017-06-16T02:28:53.415Z,17.36
2017-06-16T02:29:53.094Z,17.41
2017-06-16T02:30:53.083Z,17.4
2017-06-16T02:31:53.070Z,17.29
2017-06-16T02:32:53.376Z,17.33
2017-06-16T02:33:52.734Z,17.29
2017-06-16T02:34:53.045Z,17.23
2017-06-16T02:35:53.393Z,17.25
2017-06-16T02:36:53.023Z,17.18
2017-06-16T02:37:53.008Z,17.17
2017-06-16T02:38:52.685Z,17.14
2017-06-16T02:39:52.988Z,17.13
2017-06-16T02:40:53.292Z,17.17
2017-06-16T02:41:52.659Z,17.08
2017-06-16T02:42:52.642Z,17.17
2017-06-16T02:43:52.949Z,17.1
2017-06-16T02:44:52.936Z,17.06
2017-06-16T02:45:53.238Z,17.06
2017-06-16T02:46:53.227Z,17.13
2017-06-16T02:47:53.222Z,17.06
2017-06-16T02:48:52.891Z,17.14
2017-06-16T02:49:52.920Z,17.1
2017-06-16T02:50:53.183Z,17.03
2017-06-16T02:51:52.860Z,16.99
2017-06-16T02:52:52.852Z,17
2017-06-16T02:53:53.152Z,17
2017-06-16T02:54:53.140Z,17.1
2017-06-16T02:55:52.816Z,17.03
2017-06-16T02:56:52.805Z,17.03
2017-06-16T02:57:53.111Z,17.03
2017-06-16T02:58:52.476Z,16.98
2017-06-16T02:59:52.779Z,17.08
2017-06-16T03:00:52.453Z,17.08
2017-06-16T03:01:52.443Z,17.06
2017-06-16T03:02:52.741Z,17.07
2017-06-16T03:03:52.735Z,17.07
2017-06-16T03:04:52.721Z,16.95
2017-06-16T03:05:52.709Z,17.04
2017-06-16T03:06:53.013Z,16.99
2017-06-16T03:07:52.381Z,16.98
2017-06-16T03:08:52.677Z,16.99
2017-06-16T03:09:52.978Z,16.93
2017-06-16T03:10:52.657Z,16.93
2017-06-16T03:11:52.653Z,16.92
2017-06-16T03:12:52.320Z,16.93
2017-06-16T03:13:52.629Z,16.96
2017-06-16T03:14:52.925Z,16.93
2017-06-16T03:15:52.609Z,16.88
2017-06-16T03:16:52.908Z,16.9
2017-06-16T03:17:52.269Z,16.86
2017-06-16T03:18:52.571Z,16.89
2017-06-16T03:19:52.870Z,16.89
2017-06-16T03:20:52.237Z,16.8
2017-06-16T03:21:52.236Z,16.83
2017-06-16T03:22:52.544Z,16.8
2017-06-16T03:23:52.861Z,16.85
2017-06-16T03:24:53.021Z,16.8
2017-06-16T03:25:52.186Z,16.77
2017-06-16T03:26:52.795Z,16.78
2017-06-16T03:27:52.181Z,16.78
2017-06-16T03:28:52.149Z,16.89
2017-06-16T03:29:52.762Z,16.77
2017-06-16T03:30:52.769Z,16.86
2017-06-16T03:31:52.113Z,16.78
2017-06-16T03:32:52.731Z,16.77
2017-06-16T03:33:52.720Z,16.86
2017-06-16T03:34:52.402Z,16.71
2017-06-16T03:35:52.386Z,16.83
2017-06-16T03:36:52.688Z,16.83
2017-06-16T03:37:52.678Z,16.85
2017-06-16T03:38:52.672Z,16.75
2017-06-16T03:39:52.343Z,16.81
2017-06-16T03:40:52.646Z,16.71
2017-06-16T03:41:52.007Z,16.75
2017-06-16T03:42:52.310Z,16.7
2017-06-16T03:43:52.618Z,16.8
2017-06-16T03:44:52.598Z,16.89
2017-06-16T03:45:52.277Z,16.8
2017-06-16T03:46:51.955Z,16.81
2017-06-16T03:47:52.571Z,16.81
2017-06-16T03:48:52.243Z,16.74
2017-06-16T03:49:52.232Z,16.71
2017-06-16T03:50:51.911Z,16.86
2017-06-16T03:51:52.215Z,16.74
2017-06-16T03:52:52.205Z,16.74
2017-06-16T03:53:52.207Z,16.75
2017-06-16T03:54:52.515Z,16.75
2017-06-16T03:55:52.185Z,16.71
2017-06-16T03:56:52.488Z,16.81
2017-06-16T03:57:52.181Z,16.8
2017-06-16T03:58:52.145Z,16.9
2017-06-16T03:59:52.131Z,16.85
2017-06-16T04:00:52.127Z,16.83
2017-06-16T04:01:52.435Z,16.67
2017-06-16T04:02:52.091Z,16.86
2017-06-16T04:03:52.087Z,16.67
2017-06-16T04:04:51.758Z,16.71
2017-06-16T04:05:51.749Z,16.88
2017-06-16T04:06:52.368Z,16.71
2017-06-16T04:07:52.047Z,16.75
2017-06-16T04:08:52.029Z,16.86
2017-06-16T04:09:52.021Z,16.83
2017-06-16T04:10:52.006Z,16.81
2017-06-16T04:11:52.313Z,16.86
2017-06-16T04:12:51.981Z,16.8
2017-06-16T04:13:52.291Z,16.75
2017-06-16T04:14:51.965Z,16.71
2017-06-16T04:15:51.645Z,16.7
2017-06-16T04:16:51.939Z,16.73
2017-06-16T04:17:52.244Z,16.59
2017-06-16T04:18:51.622Z,16.67
2017-06-16T04:19:51.915Z,16.62
2017-06-16T04:20:51.897Z,16.68
2017-06-16T04:21:51.886Z,16.63
2017-06-16T04:22:51.875Z,16.63
2017-06-16T04:23:51.864Z,16.63
2017-06-16T04:24:51.853Z,16.59
2017-06-16T04:25:52.162Z,16.6
2017-06-16T04:26:51.521Z,16.6
2017-06-16T04:27:51.827Z,16.59
2017-06-16T04:28:51.500Z,16.59
2017-06-16T04:29:52.112Z,16.65
2017-06-16T04:30:51.789Z,16.62
2017-06-16T04:31:51.781Z,16.59
2017-06-16T04:32:52.086Z,16.63
2017-06-16T04:33:52.083Z,16.62
2017-06-16T04:34:51.752Z,16.62
2017-06-16T04:35:52.050Z,16.63
2017-06-16T04:36:51.730Z,16.6
2017-06-16T04:37:51.713Z,16.6
2017-06-16T04:38:51.702Z,16.59
2017-06-16T04:39:51.377Z,16.6
2017-06-16T04:40:52.002Z,16.58
2017-06-16T04:41:51.717Z,16.62
2017-06-16T04:42:51.347Z,16.75
2017-06-16T04:43:51.336Z,16.63
2017-06-16T04:44:51.670Z,16.71
2017-06-16T04:45:51.313Z,16.73
2017-06-16T04:46:51.617Z,16.75
2017-06-16T04:47:51.650Z,16.73
2017-06-16T04:48:51.908Z,16.71
2017-06-16T04:49:51.588Z,16.71
2017-06-16T04:50:51.258Z,16.71
2017-06-16T04:51:51.246Z,16.73
2017-06-16T04:52:51.547Z,16.74
2017-06-16T04:53:51.534Z,16.75
2017-06-16T04:54:51.524Z,16.73
2017-06-16T04:55:51.829Z,16.68
2017-06-16T04:56:51.820Z,16.71
2017-06-16T04:57:51.546Z,16.75
2017-06-16T04:58:51.799Z,16.73
2017-06-16T04:59:51.475Z,16.85
2017-06-16T05:00:51.772Z,16.67
2017-06-16T05:01:51.762Z,16.83
2017-06-16T05:02:51.443Z,16.8
2017-06-16T05:03:51.115Z,16.8
2017-06-16T05:04:51.428Z,16.89
2017-06-16T05:05:51.411Z,16.81
2017-06-16T05:06:51.405Z,16.93
2017-06-16T05:07:51.695Z,16.96
2017-06-16T05:08:51.699Z,16.95
2017-06-16T05:09:51.367Z,17.04
2017-06-16T05:10:51.354Z,17.08
2017-06-16T05:11:51.345Z,17.04
2017-06-16T05:12:51.335Z,17.08
2017-06-16T05:13:51.646Z,17.13
2017-06-16T05:14:51.313Z,17.18
2017-06-16T05:15:51.648Z,17.22
2017-06-16T05:16:51.287Z,17.18
2017-06-16T05:17:51.282Z,17.18
2017-06-16T05:18:51.272Z,17.25
2017-06-16T05:19:51.587Z,17.22
2017-06-16T05:20:51.561Z,17.22
2017-06-16T05:21:51.245Z,17.2
2017-06-16T05:22:50.919Z,17.22
2017-06-16T05:23:50.901Z,17.22
2017-06-16T05:24:51.411Z,17.14
2017-06-16T05:25:50.883Z,17.14
2017-06-16T05:26:51.183Z,17.11
2017-06-16T05:27:51.175Z,17.13
2017-06-16T05:28:51.478Z,17.15
2017-06-16T05:29:51.154Z,17.1
2017-06-16T05:30:50.833Z,17.06
2017-06-16T05:31:50.820Z,16.99
2017-06-16T05:32:51.126Z,17.06
2017-06-16T05:33:51.427Z,16.93
2017-06-16T05:34:51.414Z,16.93
2017-06-16T05:35:51.094Z,16.92
2017-06-16T05:36:51.391Z,16.96
2017-06-16T05:37:50.759Z,16.95
2017-06-16T05:38:51.374Z,17.04
2017-06-16T05:39:51.365Z,17.08
2017-06-16T05:40:51.357Z,17.11
2017-06-16T05:41:51.035Z,17.18
2017-06-16T05:42:51.330Z,17.26
2017-06-16T05:43:51.010Z,17.2
2017-06-16T05:44:50.682Z,17.23
2017-06-16T05:45:50.672Z,17.3
2017-06-16T05:46:50.979Z,17.26
2017-06-16T05:47:50.966Z,17.28
2017-06-16T05:48:50.642Z,17.29
2017-06-16T05:49:50.946Z,17.29
2017-06-16T05:50:51.248Z,17.36
2017-06-16T05:51:51.237Z,17.35
2017-06-16T05:52:51.228Z,17.53
2017-06-16T05:53:50.903Z,17.51
2017-06-16T05:54:51.206Z,17.43
2017-06-16T05:55:50.885Z,17.54
2017-06-16T05:56:50.562Z,17.53
2017-06-16T05:57:50.860Z,17.57
2017-06-16T05:58:51.165Z,17.59
2017-06-16T05:59:50.531Z,17.54
2017-06-16T06:00:50.830Z,17.55
2017-06-16T06:01:50.823Z,17.53
2017-06-16T06:02:50.814Z,17.53
2017-06-16T06:03:50.806Z,17.53
2017-06-16T06:04:50.794Z,17.57
2017-06-16T06:05:50.467Z,17.55
2017-06-16T06:06:50.815Z,17.66
2017-06-16T06:07:50.760Z,17.63
2017-06-16T06:08:51.063Z,17.62
2017-06-16T06:09:50.424Z,17.76
2017-06-16T06:10:50.729Z,17.73
2017-06-16T06:11:50.719Z,17.79
2017-06-16T06:12:50.716Z,17.79
2017-06-16T06:13:51.013Z,17.76
2017-06-16T06:14:50.691Z,17.69
2017-06-16T06:15:50.682Z,17.79
2017-06-16T06:16:50.672Z,17.78
2017-06-16T06:17:50.666Z,17.76
2017-06-16T06:18:50.652Z,17.84
2017-06-16T06:19:50.642Z,18
2017-06-16T06:20:50.632Z,17.85
2017-06-16T06:21:50.686Z,17.99
2017-06-16T06:22:50.928Z,17.99
2017-06-16T06:23:50.709Z,17.97
2017-06-16T06:24:50.592Z,18.04
2017-06-16T06:25:50.589Z,18
2017-06-16T06:26:50.578Z,17.97
2017-06-16T06:27:50.567Z,18.07
2017-06-16T06:28:50.249Z,17.99
2017-06-16T06:29:50.865Z,17.95
2017-06-16T06:30:50.850Z,18.03
2017-06-16T06:31:50.563Z,18.07
2017-06-16T06:32:50.521Z,18.02
2017-06-16T06:33:50.512Z,18.1
2017-06-16T06:34:50.503Z,18.07
2017-06-16T06:35:50.493Z,18.09
2017-06-16T06:36:50.793Z,18.13
2017-06-16T06:37:50.484Z,18.06
2017-06-16T06:38:50.464Z,18
2017-06-16T06:39:50.145Z,18.06
2017-06-16T06:40:50.755Z,18.1
2017-06-16T06:41:50.434Z,18.12
2017-06-16T06:42:50.738Z,18.15
2017-06-16T06:43:50.421Z,18.1
2017-06-16T06:44:50.409Z,18.13
2017-06-16T06:45:50.136Z,18.18
2017-06-16T06:46:50.387Z,18.19
2017-06-16T06:47:50.696Z,18.25
2017-06-16T06:48:50.683Z,18.29
2017-06-16T06:49:50.677Z,18.46
2017-06-16T06:50:50.365Z,18.42
2017-06-16T06:51:50.659Z,18.43
2017-06-16T06:52:50.026Z,18.36
2017-06-16T06:53:50.327Z,18.29
2017-06-16T06:54:50.316Z,18.28
2017-06-16T06:55:50.623Z,18.36
2017-06-16T06:56:50.608Z,18.42
2017-06-16T06:57:50.290Z,18.36
2017-06-16T06:58:50.021Z,18.39
2017-06-16T06:59:50.279Z,18.25
2017-06-16T07:00:50.265Z,18.28
2017-06-16T07:01:50.258Z,18.28
2017-06-16T07:02:50.247Z,18.22
2017-06-16T07:03:50.236Z,18.18
2017-06-16T07:04:50.226Z,18.17
2017-06-16T07:05:49.906Z,18.12
2017-06-16T07:06:50.209Z,18.18
2017-06-16T07:07:50.510Z,18.12
2017-06-16T07:08:50.191Z,18.13
2017-06-16T07:09:49.873Z,18.19
2017-06-16T07:10:50.485Z,18.18
2017-06-16T07:11:50.482Z,18.29
2017-06-16T07:12:49.840Z,18.22
2017-06-16T07:13:50.479Z,18.24
2017-06-16T07:14:50.135Z,18.36
2017-06-16T07:15:49.816Z,18.37
2017-06-16T07:16:50.121Z,18.57
2017-06-16T07:17:50.425Z,18.59
2017-06-16T07:18:50.097Z,18.86
2017-06-16T07:19:50.098Z,19.18
2017-06-16T07:20:50.085Z,19.15
2017-06-16T07:21:50.075Z,19.11
2017-06-16T07:22:50.064Z,19.15
2017-06-16T07:23:50.422Z,19.05
2017-06-16T07:24:49.943Z,19.1
2017-06-16T07:25:50.043Z,19.54
2017-06-16T07:26:50.344Z,19.57
2017-06-16T07:27:50.380Z,19.73
2017-06-16T07:28:50.327Z,20.62
2017-06-16T07:29:50.012Z,20.9
2017-06-16T07:30:50.339Z,20.74
2017-06-16T07:31:50.023Z,20.61
2017-06-16T07:32:49.982Z,20.46
2017-06-16T07:33:50.003Z,20.12
2017-06-16T07:34:50.289Z,19.94
2017-06-16T07:35:50.277Z,19.61
2017-06-16T07:36:49.646Z,19.54
2017-06-16T07:37:49.948Z,19.42
2017-06-16T07:38:49.675Z,19.38
2017-06-16T07:39:50.257Z,19.29
2017-06-16T07:40:50.241Z,19.21
2017-06-16T07:41:49.919Z,19.11
2017-06-16T07:42:49.929Z,19.01
2017-06-16T07:43:49.904Z,19.05
2017-06-16T07:44:49.933Z,18.98
2017-06-16T07:45:49.886Z,18.99
2017-06-16T07:46:49.877Z,18.92
2017-06-16T07:47:49.866Z,18.9
2017-06-16T07:48:50.174Z,18.95
2017-06-16T07:49:49.545Z,18.9
2017-06-16T07:50:50.158Z,18.99
2017-06-16T07:51:50.154Z,18.97
2017-06-16T07:52:50.146Z,18.92
2017-06-16T07:53:50.136Z,18.9
2017-06-16T07:54:49.852Z,18.82
2017-06-16T07:55:50.125Z,18.87
2017-06-16T07:56:50.112Z,18.92
2017-06-16T07:57:49.479Z,18.86
2017-06-16T07:58:49.469Z,18.87
2017-06-16T08:00:50.952Z,18.94
2017-06-16T08:01:49.444Z,18.95
2017-06-16T08:02:49.749Z,18.9
2017-06-16T08:03:50.065Z,19.01
2017-06-16T08:04:49.734Z,19.28
2017-06-16T08:05:49.413Z,19.38
2017-06-16T08:06:49.719Z,19.47
2017-06-16T08:07:49.709Z,19.72
2017-06-16T08:08:49.388Z,20
2017-06-16T08:09:49.381Z,20.09
2017-06-16T08:10:49.687Z,19.97
2017-06-16T08:11:49.990Z,19.79
2017-06-16T08:12:49.673Z,19.8
2017-06-16T08:13:49.355Z,20.39
2017-06-16T08:14:49.342Z,20.93
2017-06-16T08:15:49.961Z,21.51
2017-06-16T08:16:49.647Z,21.9
2017-06-16T08:17:49.665Z,21.95
2017-06-16T08:18:49.632Z,21.56
2017-06-16T08:19:49.931Z,21.24
2017-06-16T08:20:49.619Z,21.26
2017-06-16T08:21:49.928Z,22.38
2017-06-16T08:22:49.624Z,22.65
2017-06-16T08:23:49.602Z,22.22
2017-06-16T08:24:49.593Z,22.19
2017-06-16T08:25:49.586Z,21.81
2017-06-16T08:26:49.584Z,21.41
2017-06-16T08:27:49.891Z,21.14
2017-06-16T08:28:49.883Z,21.57
2017-06-16T08:29:49.923Z,21.82
2017-06-16T08:30:49.563Z,22.77
2017-06-16T08:31:49.866Z,23.71
2017-06-16T08:32:49.867Z,23.86
2017-06-16T08:33:49.236Z,23.95
2017-06-16T08:34:49.860Z,24.41
2017-06-16T08:35:49.538Z,24.63
2017-06-16T08:36:49.536Z,24.98
2017-06-16T08:37:49.223Z,25.19
2017-06-16T08:38:49.839Z,24.8
2017-06-16T08:39:49.906Z,24.31
2017-06-16T08:40:49.833Z,23.67
2017-06-16T08:41:49.830Z,23.11
2017-06-16T08:42:49.828Z,22.54
2017-06-16T08:43:49.509Z,22.93
2017-06-16T08:44:49.193Z,22.78
2017-06-16T08:45:49.820Z,22.72
2017-06-16T08:46:49.501Z,22.32
2017-06-16T08:47:49.808Z,22.02
2017-06-16T08:48:49.490Z,22.23
2017-06-16T08:49:49.489Z,21.98
2017-06-16T08:50:49.809Z,21.75
2017-06-16T08:51:49.480Z,21.71
2017-06-16T08:52:49.475Z,21.36
2017-06-16T08:53:49.791Z,21.26
2017-06-16T08:54:49.466Z,20.96
2017-06-16T08:55:49.460Z,20.89
2017-06-16T08:56:49.457Z,21.11
2017-06-16T08:57:49.766Z,21.06
2017-06-16T08:58:49.449Z,21.54
2017-06-16T08:59:49.443Z,21.88
2017-06-16T09:00:49.141Z,21.78
2017-06-16T09:01:49.121Z,21.56
2017-06-16T09:02:49.433Z,21.41
2017-06-16T09:03:49.735Z,21.26
2017-06-16T09:04:49.421Z,21.04
2017-06-16T09:05:49.732Z,20.96
2017-06-16T09:06:49.725Z,20.84
2017-06-16T09:07:49.405Z,20.95
2017-06-16T09:08:49.086Z,20.84
2017-06-16T09:09:49.705Z,20.8
2017-06-16T09:10:49.704Z,20.59
2017-06-16T09:11:49.386Z,20.61
2017-06-16T09:12:49.689Z,20.41
2017-06-16T09:13:49.691Z,20.42
2017-06-16T09:14:49.364Z,20.3
2017-06-16T09:15:49.706Z,20.21
2017-06-16T09:16:49.672Z,20.16
2017-06-16T09:17:49.357Z,20.09
2017-06-16T09:18:49.665Z,20.1
2017-06-16T09:19:49.648Z,20.1
2017-06-16T09:20:49.335Z,20.12
2017-06-16T09:21:49.636Z,20.15
2017-06-16T09:22:49.631Z,20.24
2017-06-16T09:23:49.627Z,20.33
2017-06-16T09:24:49.474Z,20.27
2017-06-16T09:25:48.994Z,20.42
2017-06-16T09:26:49.292Z,20.53
2017-06-16T09:27:48.972Z,20.74
2017-06-16T09:28:49.596Z,20.81
2017-06-16T09:29:49.280Z,21.01
2017-06-16T09:30:49.584Z,21.21
2017-06-16T09:31:49.257Z,21.51
2017-06-16T09:32:49.251Z,21.79
2017-06-16T09:33:49.251Z,21.63
2017-06-16T09:34:49.249Z,21.56
2017-06-16T09:35:49.235Z,21.59
2017-06-16T09:36:49.541Z,21.39
2017-06-16T09:37:49.225Z,21.23
2017-06-16T09:38:49.220Z,21.05
2017-06-16T09:39:49.529Z,20.81
2017-06-16T09:40:49.521Z,20.68
2017-06-16T09:41:49.512Z,20.61
2017-06-16T09:42:49.504Z,20.51
2017-06-16T09:43:48.876Z,20.42
2017-06-16T09:44:49.696Z,20.27
2017-06-16T09:45:49.491Z,20.3
2017-06-16T09:46:49.478Z,20.27
2017-06-16T09:47:49.162Z,20.16
2017-06-16T09:48:48.847Z,20.27
2017-06-16T09:49:49.152Z,20.35
2017-06-16T09:50:48.826Z,20.39
2017-06-16T09:51:49.450Z,20.96
2017-06-16T09:52:49.130Z,21.21
2017-06-16T09:53:49.121Z,21.67
2017-06-16T09:54:49.114Z,21.97
2017-06-16T09:55:49.112Z,22.32
2017-06-16T09:56:49.118Z,22.56
2017-06-16T09:57:49.413Z,22.72
2017-06-16T09:58:49.412Z,22.83
2017-06-16T09:59:48.779Z,22.46
2017-06-16T10:00:49.090Z,22.23
2017-06-16T10:01:49.082Z,22.02
2017-06-16T10:02:49.400Z,21.94
2017-06-16T10:03:49.388Z,21.88
2017-06-16T10:04:49.068Z,21.9
2017-06-16T10:05:49.062Z,21.94
2017-06-16T10:06:49.061Z,22.06
2017-06-16T10:07:49.071Z,22.35
2017-06-16T10:08:49.366Z,22.27
2017-06-16T10:09:49.366Z,22.32
2017-06-16T10:10:49.045Z,22.06
2017-06-16T10:11:49.357Z,21.92
2017-06-16T10:12:49.041Z,21.92
2017-06-16T10:13:49.033Z,21.91
2017-06-16T10:14:49.340Z,21.75
2017-06-16T10:15:49.019Z,21.57
2017-06-16T10:16:49.017Z,21.3
2017-06-16T10:17:49.021Z,21.44
2017-06-16T10:18:48.697Z,21.34
2017-06-16T10:19:49.315Z,21.35
2017-06-16T10:20:48.998Z,21.27
2017-06-16T10:21:48.990Z,21.29
2017-06-16T10:22:49.320Z,21.32
2017-06-16T10:23:48.985Z,21.27
2017-06-16T10:24:48.985Z,21.26
2017-06-16T10:25:49.289Z,21.06
2017-06-16T10:26:49.289Z,20.99
2017-06-16T10:27:49.277Z,21.01
2017-06-16T10:28:48.964Z,21.21
2017-06-16T10:29:48.957Z,21.2
2017-06-16T10:30:48.946Z,21.21
2017-06-16T10:31:48.943Z,21.32
2017-06-16T10:32:49.254Z,21.32
2017-06-16T10:33:48.934Z,21.23
2017-06-16T10:34:48.609Z,21.14
2017-06-16T10:35:49.287Z,21.06
2017-06-16T10:36:49.227Z,21.14
2017-06-16T10:37:48.905Z,21.11
2017-06-16T10:38:48.591Z,20.86
2017-06-16T10:39:49.211Z,20.83
2017-06-16T10:40:49.208Z,20.96
2017-06-16T10:41:48.887Z,21.06
2017-06-16T10:42:48.882Z,21.34
2017-06-16T10:43:48.875Z,21.26
2017-06-16T10:44:49.186Z,21.29
2017-06-16T10:45:48.861Z,21.23
2017-06-16T10:46:49.172Z,21.26
2017-06-16T10:47:49.167Z,21.32
2017-06-16T10:48:49.166Z,21.29
2017-06-16T10:49:48.530Z,21.26
2017-06-16T10:50:48.840Z,21.2
2017-06-16T10:51:48.838Z,21.01
2017-06-16T10:52:48.830Z,20.98
2017-06-16T10:53:49.136Z,20.98
2017-06-16T10:54:49.127Z,20.93
2017-06-16T10:55:48.501Z,20.89
2017-06-16T10:56:48.807Z,20.81
2017-06-16T10:57:49.110Z,20.95
2017-06-16T10:58:48.798Z,20.95
2017-06-16T10:59:48.793Z,20.87
2017-06-16T11:00:48.787Z,20.91
2017-06-16T11:01:49.093Z,20.81
2017-06-16T11:02:49.089Z,20.81
2017-06-16T11:03:48.765Z,20.68
2017-06-16T11:04:49.071Z,20.86
2017-06-16T11:05:48.757Z,20.91
2017-06-16T11:06:49.059Z,20.91
2017-06-16T11:07:48.460Z,20.91
2017-06-16T11:08:48.735Z,20.96
2017-06-16T11:09:48.766Z,20.81
2017-06-16T11:10:49.034Z,20.9
2017-06-16T11:11:48.719Z,20.68
2017-06-16T11:12:49.021Z,20.65
2017-06-16T11:13:49.017Z,20.64
2017-06-16T11:14:49.017Z,20.51
2017-06-16T11:15:48.377Z,20.41
2017-06-16T11:16:48.383Z,20.42
2017-06-16T11:17:48.994Z,20.56
2017-06-16T11:18:48.398Z,20.56
2017-06-16T11:19:48.982Z,20.62
2017-06-16T11:20:48.661Z,20.49
2017-06-16T11:21:48.653Z,20.53
2017-06-16T11:22:48.648Z,20.93
2017-06-16T11:23:48.641Z,21.56
2017-06-16T11:24:48.637Z,22.01
2017-06-16T11:25:48.939Z,22.43
2017-06-16T11:26:48.346Z,22.82
2017-06-16T11:27:48.931Z,22.75
2017-06-16T11:28:48.936Z,22.46
2017-06-16T11:29:48.611Z,22.32
2017-06-16T11:30:48.916Z,22.1
2017-06-16T11:31:48.914Z,21.69
2017-06-16T11:32:48.281Z,21.36
2017-06-16T11:33:48.908Z,21.27
2017-06-16T11:34:48.273Z,21.17
2017-06-16T11:35:48.598Z,20.86
2017-06-16T11:36:48.587Z,20.66
2017-06-16T11:37:48.255Z,20.66
2017-06-16T11:38:48.253Z,20.56
2017-06-16T11:39:48.561Z,20.47
2017-06-16T11:40:48.561Z,20.42
2017-06-16T11:41:48.551Z,20.35
2017-06-16T11:42:48.864Z,20.39
2017-06-16T11:43:48.229Z,20.34
2017-06-16T11:44:48.222Z,20.3
2017-06-16T11:45:48.840Z,20.31
2017-06-16T11:46:48.843Z,20.38
2017-06-16T11:47:48.516Z,20.41
2017-06-16T11:48:48.518Z,20.35
2017-06-16T11:49:48.816Z,20.43
2017-06-16T11:50:48.500Z,20.47
2017-06-16T11:51:48.496Z,20.41
2017-06-16T11:52:48.488Z,20.54
2017-06-16T11:53:48.477Z,20.65
2017-06-16T11:54:48.480Z,20.56
2017-06-16T11:55:48.783Z,20.59
2017-06-16T11:56:48.153Z,20.61
2017-06-16T11:57:48.457Z,20.62
2017-06-16T11:58:48.144Z,20.61
2017-06-16T11:59:48.446Z,20.58
2017-06-16T12:00:48.437Z,20.51
2017-06-16T12:01:48.742Z,20.58
2017-06-16T12:02:48.424Z,20.49
2017-06-16T12:03:48.417Z,20.43
2017-06-16T12:04:48.727Z,20.46
2017-06-16T12:05:48.721Z,20.42
2017-06-16T12:06:48.401Z,20.34
2017-06-16T12:07:48.394Z,20.46
2017-06-16T12:08:48.390Z,20.21
2017-06-16T12:09:48.385Z,20.27
2017-06-16T12:10:48.379Z,20.3
2017-06-16T12:11:48.373Z,20.28
2017-06-16T12:12:48.677Z,20.2
2017-06-16T12:13:48.673Z,20.23
2017-06-16T12:14:48.353Z,20.12
2017-06-16T12:15:48.658Z,20.13
2017-06-16T12:16:48.371Z,20.06
2017-06-16T12:17:48.641Z,19.95
2017-06-16T12:18:48.009Z,20.06
2017-06-16T12:19:48.316Z,19.97
2017-06-16T12:20:48.306Z,19.93
2017-06-16T12:21:48.302Z,20
2017-06-16T12:22:48.297Z,19.86
2017-06-16T12:23:48.286Z,19.84
2017-06-16T12:24:48.596Z,19.79
2017-06-16T12:25:48.272Z,19.75
2017-06-16T12:26:47.951Z,19.78
2017-06-16T12:27:47.944Z,19.8
2017-06-16T12:28:47.940Z,19.75
2017-06-16T12:29:48.241Z,19.66
2017-06-16T12:30:48.550Z,19.72
2017-06-16T12:31:48.348Z,19.7
2017-06-16T12:32:48.222Z,19.76
2017-06-16T12:33:48.215Z,19.83
2017-06-16T12:34:48.204Z,19.94
2017-06-16T12:35:48.518Z,20.25
2017-06-16T12:36:48.509Z,20.47
2017-06-16T12:37:48.183Z,20.68
2017-06-16T12:38:47.863Z,20.77
2017-06-16T12:39:48.171Z,21.06
2017-06-16T12:40:48.475Z,21.34
2017-06-16T12:41:48.155Z,21.41
2017-06-16T12:42:48.468Z,21.57
2017-06-16T12:43:48.458Z,21.85
2017-06-16T12:44:48.136Z,22.29
2017-06-16T12:45:48.127Z,22.53
2017-06-16T12:46:48.130Z,22.54
2017-06-16T12:47:48.123Z,22.56
2017-06-16T12:48:48.116Z,22.46
2017-06-16T12:49:48.107Z,22.1
2017-06-16T12:50:48.110Z,22.02
2017-06-16T12:51:47.790Z,21.78
2017-06-16T12:52:48.411Z,21.59
2017-06-16T12:53:48.093Z,21.32
2017-06-16T12:54:48.088Z,21.23
2017-06-16T12:55:48.394Z,20.98
2017-06-16T12:56:48.393Z,20.8